Time;durP1;ratioP1;P1;durP2;ratioP2;P2;SDS_P1;SDS_P2;PMS_P1;PMS_P2;Temp;Humidity;BMP_temperature;BMP_pressure;BME280_temperature;BME280_humidity;BME280_pressure;Samples;Min_cycle;Max_cycle;Signal;HPM_P1;HPM_P2
2021/09/25 00:01:02;;;;;;;8.10;4.18;;;;;;;;;;4897568;29;20029;-76
2021/09/25 00:03:29;;;;;;;6.88;3.88;;;;;;;;;;4896515;29;20402;-79
2021/09/25 00:05:55;;;;;;;5.90;4.22;;;;;;;;;;4897581;29;20024;-78
2021/09/25 00:08:22;;;;;;;7.07;3.35;;;;;;;;;;4897542;29;20482;-79
2021/09/25 00:10:48;;;;;;;6.25;3.75;;;;;;;;;;4897513;29;20473;-78
2021/09/25 00:13:14;;;;;;;6.10;3.40;;;;;;;;;;4896221;29;20482;-78
2021/09/25 00:15:41;;;;;;;7.50;3.85;;;;;;;;;;4900345;29;20050;-79
2021/09/25 00:18:07;;;;;;;7.70;3.30;;;;;;;;;;4916529;29;20056;-78
2021/09/25 00:20:34;;;;;;;6.28;3.58;;;;;;;;;;4915056;29;20399;-77
2021/09/25 00:23:00;;;;;;;7.35;4.50;;;;;;;;;;4915149;29;20088;-77
2021/09/25 00:25:26;;;;;;;7.68;3.42;;;;;;;;;;4915008;29;20441;-77
2021/09/25 00:27:52;;;;;;;5.38;2.97;;;;;;;;;;4914928;29;20028;-78
2021/09/25 00:30:19;;;;;;;8.15;3.97;;;;;;;;;;4916296;29;20123;-78
2021/09/25 00:32:46;;;;;;;6.28;4.00;;;;;;;;;;4916116;29;20080;-78
2021/09/25 00:35:12;;;;;;;6.72;4.13;;;;;;;;;;4916270;29;20026;-77
2021/09/25 00:37:39;;;;;;;6.90;3.83;;;;;;;;;;4916296;29;20032;-78
2021/09/25 00:40:06;;;;;;;6.90;3.88;;;;;;;;;;4916242;29;20036;-77
2021/09/25 00:42:32;;;;;;;6.85;3.72;;;;;;;;;;4914925;29;20028;-77
2021/09/25 00:44:58;;;;;;;8.77;4.47;;;;;;;;;;4914814;29;20028;-79
2021/09/25 00:47:25;;;;;;;6.72;3.25;;;;;;;;;;4916112;29;20036;-79
2021/09/25 00:49:51;;;;;;;5.88;3.50;;;;;;;;;;4914741;29;20043;-77
2021/09/25 00:52:17;;;;;;;6.53;4.05;;;;;;;;;;4914825;29;20028;-78
2021/09/25 00:54:44;;;;;;;6.90;4.03;;;;;;;;;;4916103;29;20037;-77
2021/09/25 00:57:10;;;;;;;8.57;4.40;;;;;;;;;;4914838;29;20032;-78
2021/09/25 00:59:37;;;;;;;7.88;4.55;;;;;;;;;;4916103;29;20440;-78
2021/09/25 01:02:04;;;;;;;8.40;4.68;;;;;;;;;;4916084;29;20481;-79
2021/09/25 01:04:32;;;;;;;6.15;3.88;;;;;;;;;;4914712;29;20038;-78
2021/09/25 01:06:59;;;;;;;9.00;4.88;;;;;;;;;;4915960;29;20397;-78
2021/09/25 01:09:26;;;;;;;8.10;3.85;;;;;;;;;;4915807;29;20489;-78
2021/09/25 01:11:52;;;;;;;7.03;4.25;;;;;;;;;;4918027;29;20556;-79
2021/09/25 01:14:18;;;;;;;7.10;3.92;;;;;;;;;;4919315;29;20032;-82
2021/09/25 01:16:44;;;;;;;6.63;4.10;;;;;;;;;;4917841;29;20138;-78
2021/09/25 01:19:11;;;;;;;6.70;3.90;;;;;;;;;;4919285;29;20048;-77
2021/09/25 01:21:37;;;;;;;7.45;5.03;;;;;;;;;;4917967;29;20029;-78
2021/09/25 01:24:04;;;;;;;6.43;3.72;;;;;;;;;;4919177;29;20084;-78
2021/09/25 01:26:30;;;;;;;7.88;3.83;;;;;;;;;;4919132;29;20029;-78
2021/09/25 01:28:57;;;;;;;6.00;4.18;;;;;;;;;;4918881;29;20064;-79
2021/09/25 01:31:23;;;;;;;6.63;4.10;;;;;;;;;;4919111;29;20032;-79
2021/09/25 01:33:50;;;;;;;8.20;5.20;;;;;;;;;;4919012;29;20062;-78
2021/09/25 01:36:17;;;;;;;5.68;3.65;;;;;;;;;;4918912;29;20150;-80
2021/09/25 01:38:44;;;;;;;6.30;3.78;;;;;;;;;;4918957;29;20039;-78
2021/09/25 01:41:11;;;;;;;7.68;4.40;;;;;;;;;;4918823;29;20446;-78
2021/09/25 01:43:37;;;;;;;6.55;4.03;;;;;;;;;;4917588;29;20028;-76
2021/09/25 01:46:03;;;;;;;7.65;4.32;;;;;;;;;;4917489;29;20119;-76
2021/09/25 01:48:30;;;;;;;7.20;3.95;;;;;;;;;;4917413;29;20476;-80
2021/09/25 01:50:57;;;;;;;6.93;4.00;;;;;;;;;;4918733;29;20156;-78
2021/09/25 01:53:23;;;;;;;6.13;3.50;;;;;;;;;;4918734;29;20024;-77
2021/09/25 01:55:50;;;;;;;7.03;3.88;;;;;;;;;;4918664;29;20492;-77
2021/09/25 01:58:16;;;;;;;6.85;3.88;;;;;;;;;;4918598;29;20035;-78
2021/09/25 02:00:42;;;;;;;7.88;3.90;;;;;;;;;;4917360;29;20036;-77
2021/09/25 02:03:11;;;;;;;7.25;4.00;;;;;;;;;;4917165;29;20028;-76
2021/09/25 02:05:37;;;;;;;8.40;4.53;;;;;;;;;;4917036;29;20028;-78
2021/09/25 02:08:04;;;;;;;8.45;4.82;;;;;;;;;;4918351;29;20104;-78
2021/09/25 02:10:30;;;;;;;13.05;4.47;;;;;;;;;;4917035;29;20403;-77
2021/09/25 02:12:57;;;;;;;6.75;4.15;;;;;;;;;;4916959;29;20039;-76
2021/09/25 02:15:23;;;;;;;6.80;4.10;;;;;;;;;;4916906;29;20058;-76
2021/09/25 02:17:49;;;;;;;8.13;4.65;;;;;;;;;;4916844;29;20048;-78
2021/09/25 02:20:15;;;;;;;8.13;4.55;;;;;;;;;;4918261;29;20103;-77
2021/09/25 02:22:42;;;;;;;7.97;4.53;;;;;;;;;;4917878;29;20028;-78
2021/09/25 02:25:09;;;;;;;6.47;4.15;;;;;;;;;;4918309;29;20363;-78
2021/09/25 02:27:40;;;;;;;8.82;5.10;;;;;;;;;;4918061;29;20035;-78
2021/09/25 02:30:16;;;;;;;7.85;5.05;;;;;;;;;;4917985;29;20071;-78
2021/09/25 02:32:43;;;;;;;6.72;4.68;;;;;;;;;;4916869;29;20024;-79
2021/09/25 02:35:11;;;;;;;8.43;5.25;;;;;;;;;;4917846;29;20063;-79
2021/09/25 02:37:37;;;;;;;8.35;4.68;;;;;;;;;;4916549;29;20040;-78
2021/09/25 02:40:04;;;;;;;6.25;4.05;;;;;;;;;;4918037;29;20418;-77
2021/09/25 02:42:30;;;;;;;7.47;4.70;;;;;;;;;;4916340;29;20032;-76
2021/09/25 02:44:56;;;;;;;8.10;4.95;;;;;;;;;;4917749;29;20099;-78
2021/09/25 02:47:23;;;;;;;10.38;5.10;;;;;;;;;;4917644;29;20477;-77
2021/09/25 02:49:49;;;;;;;10.25;5.70;;;;;;;;;;4916529;29;20445;-78
2021/09/25 02:52:15;;;;;;;9.25;4.93;;;;;;;;;;4916212;29;20123;-78
2021/09/25 02:54:41;;;;;;;8.40;4.85;;;;;;;;;;4917558;29;20036;-76
2021/09/25 02:57:08;;;;;;;7.68;4.35;;;;;;;;;;4916136;29;20478;-79
2021/09/25 02:59:34;;;;;;;8.93;5.32;;;;;;;;;;4917471;29;20039;-78
2021/09/25 03:02:01;;;;;;;10.25;4.40;;;;;;;;;;4917339;29;20119;-78
2021/09/25 03:04:27;;;;;;;8.18;4.47;;;;;;;;;;4917211;29;20028;-78
2021/09/25 03:06:54;;;;;;;7.63;4.25;;;;;;;;;;4917309;29;20020;-78
2021/09/25 03:09:22;;;;;;;6.22;4.03;;;;;;;;;;4917373;29;20428;-79
2021/09/25 03:11:48;;;;;;;8.55;5.13;;;;;;;;;;4915904;29;20039;-76
2021/09/25 03:14:15;;;;;;;9.50;4.72;;;;;;;;;;4915817;29;20067;-78
2021/09/25 03:16:41;;;;;;;11.02;4.70;;;;;;;;;;4916915;29;20044;-77
2021/09/25 03:19:07;;;;;;;10.07;5.57;;;;;;;;;;4915934;29;20028;-78
2021/09/25 03:21:33;;;;;;;7.43;4.57;;;;;;;;;;4916958;29;20063;-78
2021/09/25 03:24:00;;;;;;;9.65;4.80;;;;;;;;;;4916926;29;20032;-78
2021/09/25 03:26:26;;;;;;;8.13;4.63;;;;;;;;;;4916987;29;20541;-78
2021/09/25 03:28:53;;;;;;;10.00;4.35;;;;;;;;;;4916810;29;20025;-79
2021/09/25 03:31:19;;;;;;;7.20;4.53;;;;;;;;;;4916910;29;20048;-78
2021/09/25 03:33:45;;;;;;;7.90;5.10;;;;;;;;;;4916209;29;20104;-77
2021/09/25 03:36:12;;;;;;;7.78;4.45;;;;;;;;;;4916868;29;20052;-78
2021/09/25 03:38:38;;;;;;;6.88;4.55;;;;;;;;;;4916918;29;20031;-79
2021/09/25 03:41:05;;;;;;;5.93;3.90;;;;;;;;;;4915542;29;20032;-78
2021/09/25 03:43:31;;;;;;;7.00;4.07;;;;;;;;;;4916687;29;20552;-78
2021/09/25 03:45:57;;;;;;;7.45;4.60;;;;;;;;;;4916698;29;20028;-79
2021/09/25 03:48:24;;;;;;;8.02;4.30;;;;;;;;;;4916592;29;20067;-77
2021/09/25 03:50:50;;;;;;;7.78;5.18;;;;;;;;;;4915367;29;20530;-78
2021/09/25 03:53:16;;;;;;;5.85;3.53;;;;;;;;;;4915507;29;20540;-78
2021/09/25 03:55:43;;;;;;;6.85;3.83;;;;;;;;;;4916615;29;20034;-78
2021/09/25 03:58:09;;;;;;;7.43;3.80;;;;;;;;;;4916596;29;20032;-77
2021/09/25 04:00:42;;;;;;;7.07;4.25;;;;;;;;;;4916422;29;20028;-76
2021/09/25 04:03:08;;;;;;;9.17;4.87;;;;;;;;;;4915337;29;20111;-77
2021/09/25 04:05:34;;;;;;;8.15;4.95;;;;;;;;;;4915207;29;20115;-77
2021/09/25 04:08:00;;;;;;;7.80;4.60;;;;;;;;;;4915268;29;20040;-77
2021/09/25 04:10:26;;;;;;;8.38;4.30;;;;;;;;;;4915166;29;20039;-81
2021/09/25 04:12:53;;;;;;;7.63;4.25;;;;;;;;;;4915202;29;20020;-79
2021/09/25 04:15:19;;;;;;;6.70;4.18;;;;;;;;;;4916336;29;20032;-78
2021/09/25 04:17:45;;;;;;;9.18;4.95;;;;;;;;;;4916332;29;20121;-81
2021/09/25 04:20:12;;;;;;;7.43;4.38;;;;;;;;;;4916474;29;20028;-80
2021/09/25 04:22:38;;;;;;;9.57;4.65;;;;;;;;;;4916245;29;20108;-78
2021/09/25 04:25:05;;;;;;;7.90;4.82;;;;;;;;;;4916293;29;20397;-80
2021/09/25 04:27:32;;;;;;;8.35;4.80;;;;;;;;;;4916152;29;20393;-79
2021/09/25 04:29:59;;;;;;;8.10;4.95;;;;;;;;;;4914743;29;20041;-79
2021/09/25 04:32:26;;;;;;;9.32;5.35;;;;;;;;;;4916240;29;20024;-79
2021/09/25 04:34:52;;;;;;;7.93;4.75;;;;;;;;;;4916240;29;20031;-78
2021/09/25 04:37:18;;;;;;;7.82;4.72;;;;;;;;;;4916161;29;20084;-78
2021/09/25 04:39:45;;;;;;;8.10;4.72;;;;;;;;;;4914982;29;20069;-78
2021/09/25 04:42:11;;;;;;;8.38;4.35;;;;;;;;;;4914810;29;20504;-77
2021/09/25 04:44:37;;;;;;;6.97;4.35;;;;;;;;;;4916350;29;20032;-79
2021/09/25 04:47:04;;;;;;;7.38;4.00;;;;;;;;;;4918497;29;20024;-76
2021/09/25 04:49:30;;;;;;;6.85;4.07;;;;;;;;;;4918484;29;20044;-80
2021/09/25 04:51:56;;;;;;;6.57;3.95;;;;;;;;;;4918408;29;20079;-78
2021/09/25 04:54:23;;;;;;;9.95;4.80;;;;;;;;;;4919616;29;20068;-78
2021/09/25 04:56:49;;;;;;;7.15;4.10;;;;;;;;;;4919645;29;20178;-79
2021/09/25 04:59:15;;;;;;;7.60;5.05;;;;;;;;;;4918233;29;20477;-77
2021/09/25 05:01:41;;;;;;;8.23;4.90;;;;;;;;;;4918166;29;20020;-77
2021/09/25 05:04:10;;;;;;;7.10;4.35;;;;;;;;;;4918381;29;20382;-77
2021/09/25 05:06:36;;;;;;;7.53;4.93;;;;;;;;;;4919352;29;20024;-78
2021/09/25 05:09:02;;;;;;;8.32;4.57;;;;;;;;;;4917933;29;20072;-77
2021/09/25 05:11:29;;;;;;;7.20;4.18;;;;;;;;;;4918064;29;20024;-79
2021/09/25 05:13:55;;;;;;;8.23;4.85;;;;;;;;;;4917978;29;20170;-79
2021/09/25 05:16:21;;;;;;;6.00;4.00;;;;;;;;;;4918968;29;20107;-78
2021/09/25 05:18:47;;;;;;;8.32;4.90;;;;;;;;;;4919154;29;20075;-77
2021/09/25 05:21:13;;;;;;;6.88;4.10;;;;;;;;;;4917888;29;20024;-78
2021/09/25 05:23:40;;;;;;;9.15;5.13;;;;;;;;;;4917827;29;20044;-79
2021/09/25 05:26:06;;;;;;;10.30;4.82;;;;;;;;;;4917879;29;20090;-77
2021/09/25 05:28:32;;;;;;;15.55;4.68;;;;;;;;;;4917673;29;20493;-77
2021/09/25 05:30:58;;;;;;;7.82;4.10;;;;;;;;;;4918943;29;20036;-79
2021/09/25 05:33:24;;;;;;;6.97;4.38;;;;;;;;;;4919074;29;20028;-77
2021/09/25 05:35:51;;;;;;;12.82;6.22;;;;;;;;;;4917569;29;20024;-77
2021/09/25 05:38:17;;;;;;;7.60;4.55;;;;;;;;;;4917698;29;20386;-78
2021/09/25 05:40:43;;;;;;;11.80;4.82;;;;;;;;;;4917956;29;20386;-76
2021/09/25 05:43:09;;;;;;;8.75;5.03;;;;;;;;;;4917846;29;20039;-83
2021/09/25 05:45:35;;;;;;;10.45;5.28;;;;;;;;;;4919216;29;20032;-78
2021/09/25 05:48:01;;;;;;;9.85;4.93;;;;;;;;;;4916542;29;20033;-77
2021/09/25 05:50:28;;;;;;;12.02;4.93;;;;;;;;;;4918280;29;20076;-77
2021/09/25 05:52:54;;;;;;;8.27;4.88;;;;;;;;;;4918005;29;20059;-76
2021/09/25 05:55:21;;;;;;;5.95;4.15;;;;;;;;;;4916898;29;20024;-77
2021/09/25 05:57:49;;;;;;;6.32;3.80;;;;;;;;;;4915166;29;20025;-77
2021/09/25 06:00:16;;;;;;;6.32;3.53;;;;;;;;;;4917034;29;20020;-77
2021/09/25 06:02:42;;;;;;;5.40;3.30;;;;;;;;;;4918186;29;20020;-77
2021/09/25 06:05:09;;;;;;;3.97;1.90;;;;;;;;;;4918661;29;20032;-85
2021/09/25 06:07:36;;;;;;;4.50;2.20;;;;;;;;;;4917747;29;20453;-78
2021/09/25 06:10:03;;;;;;;5.28;1.90;;;;;;;;;;4917945;29;20071;-85
2021/09/25 06:12:29;;;;;;;3.42;1.77;;;;;;;;;;4919444;29;20443;-85
2021/09/25 06:14:55;;;;;;;3.13;1.83;;;;;;;;;;4918041;29;20096;-78
2021/09/25 06:17:21;;;;;;;2.88;1.80;;;;;;;;;;4917840;29;20056;-78
2021/09/25 06:19:47;;;;;;;3.25;1.95;;;;;;;;;;4917930;29;20483;-78
2021/09/25 06:22:14;;;;;;;3.70;1.90;;;;;;;;;;4917833;29;20028;-78
2021/09/25 06:24:40;;;;;;;4.75;1.85;;;;;;;;;;4917768;29;20059;-78
2021/09/25 06:27:07;;;;;;;4.15;1.88;;;;;;;;;;4917758;29;20043;-82
2021/09/25 06:29:34;;;;;;;3.03;1.98;;;;;;;;;;4919891;29;20043;-79
2021/09/25 06:32:00;;;;;;;4.30;2.10;;;;;;;;;;4917702;29;20032;-79
2021/09/25 06:34:26;;;;;;;3.55;1.73;;;;;;;;;;4919001;29;20056;-83
2021/09/25 06:36:53;;;;;;;4.18;2.00;;;;;;;;;;4919407;29;20028;-78
2021/09/25 06:39:22;;;;;;;2.95;1.70;;;;;;;;;;4918393;29;20043;-79
2021/09/25 06:41:48;;;;;;;3.47;1.50;;;;;;;;;;4917593;29;20145;-85
2021/09/25 06:44:15;;;;;;;4.32;1.60;;;;;;;;;;4919543;29;20039;-79
2021/09/25 06:46:42;;;;;;;5.40;1.50;;;;;;;;;;4919278;29;20032;-80
2021/09/25 06:49:08;;;;;;;3.00;1.70;;;;;;;;;;4918724;29;20461;-80
2021/09/25 06:51:35;;;;;;;3.55;1.95;;;;;;;;;;4918761;29;20034;-79
2021/09/25 06:54:01;;;;;;;2.47;1.85;;;;;;;;;;4918548;29;20034;-77
2021/09/25 06:56:27;;;;;;;5.35;2.17;;;;;;;;;;4918302;29;20036;-78
2021/09/25 06:58:53;;;;;;;3.13;2.25;;;;;;;;;;4917381;29;20024;-78
2021/09/25 07:01:20;;;;;;;4.55;2.70;;;;;;;;;;4917485;29;20032;-79
2021/09/25 07:03:46;;;;;;;3.83;2.42;;;;;;;;;;4917284;29;20024;-82
2021/09/25 07:06:12;;;;;;;5.93;2.33;;;;;;;;;;4917096;29;20179;-79
2021/09/25 07:08:39;;;;;;;3.42;2.40;;;;;;;;;;4917585;29;20059;-86
2021/09/25 07:11:06;;;;;;;3.75;2.40;;;;;;;;;;4917223;29;20032;-78
2021/09/25 07:13:32;;;;;;;3.00;2.00;;;;;;;;;;4916949;29;20024;-81
2021/09/25 07:15:58;;;;;;;3.22;2.03;;;;;;;;;;4913731;29;20131;-82
2021/09/25 07:18:24;;;;;;;3.30;2.22;;;;;;;;;;4898105;29;20028;-81
2021/09/25 07:20:52;;;;;;;4.32;2.72;;;;;;;;;;4898443;29;20453;-78
2021/09/25 07:23:18;;;;;;;4.28;2.40;;;;;;;;;;4897912;29;20056;-79
2021/09/25 07:25:44;;;;;;;4.47;2.60;;;;;;;;;;4897689;29;20085;-85
2021/09/25 07:28:10;;;;;;;3.75;2.22;;;;;;;;;;4897690;29;20473;-84
2021/09/25 07:30:37;;;;;;;4.38;2.17;;;;;;;;;;4899021;29;20040;-83
2021/09/25 07:33:07;;;;;;;4.10;2.53;;;;;;;;;;4897776;29;20032;-80
2021/09/25 07:35:34;;;;;;;5.88;2.20;;;;;;;;;;4897751;29;20081;-84
2021/09/25 07:38:04;;;;;;;5.53;2.13;;;;;;;;;;4897838;29;20033;-79
2021/09/25 07:40:31;;;;;;;3.67;2.10;;;;;;;;;;4899633;29;20038;-80
2021/09/25 07:42:57;;;;;;;3.35;1.92;;;;;;;;;;4899138;29;20033;-83
2021/09/25 07:45:24;;;;;;;2.17;1.48;;;;;;;;;;4898917;29;20033;-79
2021/09/25 07:47:51;;;;;;;2.83;1.60;;;;;;;;;;4897392;29;20029;-79
2021/09/25 07:50:17;;;;;;;4.50;1.75;;;;;;;;;;4897886;29;20490;-77
2021/09/25 07:52:44;;;;;;;2.38;1.50;;;;;;;;;;4897510;29;20028;-83
2021/09/25 07:55:11;;;;;;;3.47;1.83;;;;;;;;;;4896718;29;20052;-80
2021/09/25 07:57:38;;;;;;;4.63;2.08;;;;;;;;;;4898299;29;20083;-79
2021/09/25 08:00:05;;;;;;;4.55;1.63;;;;;;;;;;4897288;29;20040;-80
2021/09/25 08:02:32;;;;;;;3.20;1.85;;;;;;;;;;4898664;29;20032;-80
2021/09/25 08:04:58;;;;;;;2.75;1.70;;;;;;;;;;4899386;29;20032;-80
2021/09/25 08:07:25;;;;;;;3.10;1.67;;;;;;;;;;4898689;29;20061;-80
2021/09/25 08:09:51;;;;;;;4.00;1.75;;;;;;;;;;4897478;29;20044;-79
2021/09/25 08:12:17;;;;;;;3.08;1.50;;;;;;;;;;4898129;29;20036;-79
2021/09/25 08:14:43;;;;;;;4.15;1.60;;;;;;;;;;4896987;29;20025;-79
2021/09/25 08:17:10;;;;;;;2.47;1.35;;;;;;;;;;4897244;29;20052;-79
2021/09/25 08:19:36;;;;;;;2.97;1.63;;;;;;;;;;4897036;29;20501;-79
2021/09/25 08:22:02;;;;;;;2.80;1.80;;;;;;;;;;4900452;29;20060;-79
2021/09/25 08:24:28;;;;;;;2.72;1.48;;;;;;;;;;4900097;29;20065;-79
2021/09/25 08:26:55;;;;;;;3.65;1.75;;;;;;;;;;4900198;29;20036;-79
2021/09/25 08:29:22;;;;;;;2.72;1.60;;;;;;;;;;4902185;29;20132;-79
2021/09/25 08:31:48;;;;;;;3.08;1.60;;;;;;;;;;4889296;29;20548;-77
2021/09/25 08:34:15;;;;;;;6.63;1.58;;;;;;;;;;4882719;29;20501;-80
2021/09/25 08:36:42;;;;;;;2.80;1.60;;;;;;;;;;4882175;29;20063;-82
2021/09/25 08:39:09;;;;;;;3.47;1.33;;;;;;;;;;4882755;29;20040;-77
2021/09/25 08:41:36;;;;;;;4.18;1.48;;;;;;;;;;4882163;29;20032;-78
2021/09/25 08:44:02;;;;;;;2.80;1.90;;;;;;;;;;4882139;29;20478;-81
2021/09/25 08:46:28;;;;;;;2.90;1.70;;;;;;;;;;4881956;29;20037;-78
2021/09/25 08:48:55;;;;;;;3.75;1.90;;;;;;;;;;4882799;29;20081;-79
2021/09/25 08:51:21;;;;;;;3.85;1.95;;;;;;;;;;4883012;29;20483;-77
2021/09/25 08:53:48;;;;;;;4.93;2.00;;;;;;;;;;4881650;29;20027;-79
2021/09/25 08:56:14;;;;;;;10.68;1.90;;;;;;;;;;4881833;29;20064;-81
2021/09/25 08:58:41;;;;;;;3.55;1.50;;;;;;;;;;4883674;29;20032;-78
2021/09/25 09:01:08;;;;;;;3.38;1.80;;;;;;;;;;4881686;29;20497;-78
2021/09/25 09:03:35;;;;;;;3.72;1.60;;;;;;;;;;4881710;29;20097;-78
2021/09/25 09:06:07;;;;;;;3.75;1.60;;;;;;;;;;4882412;29;20032;-78
2021/09/25 09:08:33;;;;;;;2.72;1.48;;;;;;;;;;4881633;29;20071;-78
2021/09/25 09:10:59;;;;;;;2.40;1.40;;;;;;;;;;4880745;29;20037;-79
2021/09/25 09:13:26;;;;;;;2.50;1.60;;;;;;;;;;4883083;29;20026;-78
2021/09/25 09:15:53;;;;;;;3.33;1.58;;;;;;;;;;4891032;29;20528;-78
2021/09/25 09:18:21;;;;;;;3.50;1.48;;;;;;;;;;4903336;29;20123;-80
2021/09/25 09:21:07;;;;;;;2.97;1.83;;;;;;;;;;4902601;29;20375;-78
2021/09/25 09:23:35;;;;;;;3.03;1.70;;;;;;;;;;4893393;29;20036;-77
2021/09/25 09:26:03;;;;;;;3.03;1.70;;;;;;;;;;4919988;29;20031;-78
2021/09/25 09:28:30;;;;;;;5.63;1.70;;;;;;;;;;4903027;29;20036;-79
2021/09/25 09:30:58;;;;;;;3.05;1.58;;;;;;;;;;4919706;29;20032;-79
2021/09/25 09:33:28;;;;;;;24.15;2.28;;;;;;;;;;4902437;29;20119;-80
2021/09/25 09:35:54;;;;;;;4.20;1.90;;;;;;;;;;4920104;29;20028;-79
2021/09/25 09:38:23;;;;;;;3.40;2.35;;;;;;;;;;4920159;29;20394;-79
2021/09/25 09:40:52;;;;;;;4.90;2.28;;;;;;;;;;4903010;29;20058;-79
2021/09/25 09:43:19;;;;;;;4.68;2.63;;;;;;;;;;4903237;29;20039;-79
2021/09/25 09:45:45;;;;;;;4.60;2.30;;;;;;;;;;4902998;29;20032;-79
2021/09/25 09:48:12;;;;;;;4.78;2.42;;;;;;;;;;4919793;29;20024;-79
2021/09/25 09:50:39;;;;;;;4.22;2.30;;;;;;;;;;4920013;29;20422;-79
2021/09/25 09:53:13;;;;;;;4.95;2.28;;;;;;;;;;4920379;29;20561;-79
2021/09/25 09:55:39;;;;;;;4.03;2.03;;;;;;;;;;4902973;29;20036;-79
2021/09/25 09:58:07;;;;;;;3.60;2.13;;;;;;;;;;4902687;29;20059;-79
2021/09/25 10:00:37;;;;;;;6.75;1.95;;;;;;;;;;4902717;29;20031;-79
2021/09/25 10:03:04;;;;;;;5.22;2.10;;;;;;;;;;4902692;29;20024;-79
2021/09/25 10:05:30;;;;;;;5.68;2.17;;;;;;;;;;4919686;29;20115;-79
2021/09/25 10:07:58;;;;;;;4.15;2.17;;;;;;;;;;4919423;29;20025;-79
2021/09/25 10:10:26;;;;;;;5.32;2.10;;;;;;;;;;4919448;29;20037;-79
2021/09/25 10:12:53;;;;;;;3.03;1.75;;;;;;;;;;4919382;29;20469;-79
2021/09/25 10:15:21;;;;;;;4.63;1.60;;;;;;;;;;4919394;29;20048;-79
2021/09/25 10:17:47;;;;;;;6.63;2.40;;;;;;;;;;4902310;29;20039;-79
2021/09/25 10:20:14;;;;;;;4.82;2.40;;;;;;;;;;4919314;29;20031;-79
2021/09/25 10:22:45;;;;;;;5.78;1.80;;;;;;;;;;4919721;29;20091;-79
2021/09/25 10:25:12;;;;;;;4.55;1.88;;;;;;;;;;4902558;29;20028;-79
2021/09/25 10:27:41;;;;;;;3.72;2.22;;;;;;;;;;4919995;29;20071;-79
2021/09/25 10:30:10;;;;;;;3.80;1.98;;;;;;;;;;4902531;29;20051;-80
2021/09/25 10:32:48;;;;;;;3.70;1.77;;;;;;;;;;4919614;29;20027;-79
2021/09/25 10:35:16;;;;;;;5.13;1.95;;;;;;;;;;4902206;29;20437;-80
2021/09/25 10:38:02;;;;;;;4.28;1.95;;;;;;;;;;4903030;29;20039;-80
2021/09/25 10:40:34;;;;;;;3.15;1.95;;;;;;;;;;4902001;29;20043;-80
2021/09/25 10:43:05;;;;;;;2.40;1.60;;;;;;;;;;4901870;29;20140;-80
2021/09/25 10:45:35;;;;;;;3.40;2.00;;;;;;;;;;4901903;29;20131;-80
2021/09/25 10:48:08;;;;;;;2.53;1.73;;;;;;;;;;4902024;29;20024;-79
2021/09/25 10:50:35;;;;;;;3.03;1.73;;;;;;;;;;4902861;29;20079;-80
2021/09/25 10:53:13;;;;;;;5.00;1.67;;;;;;;;;;4901729;29;20032;-80
2021/09/25 10:55:40;;;;;;;4.35;2.03;;;;;;;;;;4901925;29;20102;-80
2021/09/25 10:58:13;;;;;;;3.05;1.70;;;;;;;;;;4918891;29;20031;-81
2021/09/25 11:00:48;;;;;;;2.97;1.90;;;;;;;;;;4901600;29;20052;-80
2021/09/25 11:03:33;;;;;;;3.33;1.90;;;;;;;;;;4901571;29;20075;-80
2021/09/25 11:06:06;;;;;;;4.72;1.88;;;;;;;;;;4901821;29;20083;-80
2021/09/25 11:08:33;;;;;;;2.80;1.55;;;;;;;;;;4901660;29;20044;-80
2021/09/25 11:11:12;;;;;;;2.47;1.50;;;;;;;;;;4918551;29;20488;-80
2021/09/25 11:13:57;;;;;;;4.50;1.70;;;;;;;;;;4901566;29;20028;-80
2021/09/25 11:16:42;;;;;;;2.40;1.50;;;;;;;;;;4898109;29;20083;-80
2021/09/25 11:19:12;;;;;;;2.78;1.73;;;;;;;;;;4898080;29;20032;-80
2021/09/25 11:21:38;;;;;;;2.55;1.25;;;;;;;;;;4898199;29;20031;-80
2021/09/25 11:24:05;;;;;;;2.75;1.77;;;;;;;;;;4899616;29;20037;-80
2021/09/25 11:26:35;;;;;;;2.55;1.77;;;;;;;;;;4899980;29;20025;-77
2021/09/25 11:29:08;;;;;;;3.20;1.70;;;;;;;;;;4897306;29;20040;-80
2021/09/25 11:31:34;;;;;;;5.85;1.70;;;;;;;;;;4897689;29;20033;-76
2021/09/25 11:34:00;;;;;;;6.38;1.85;;;;;;;;;;4898960;29;20037;-78
2021/09/25 11:36:29;;;;;;;5.20;1.80;;;;;;;;;;4899097;29;20020;-78
2021/09/25 11:38:55;;;;;;;3.90;1.90;;;;;;;;;;4899257;29;20032;-77
2021/09/25 11:41:22;;;;;;;5.45;2.10;;;;;;;;;;4899653;29;20084;-79
2021/09/25 11:43:58;;;;;;;7.90;2.00;;;;;;;;;;4897752;29;20056;-84
2021/09/25 11:46:27;;;;;;;10.20;4.55;;;;;;;;;;4897494;29;20040;-76
2021/09/25 11:49:00;;;;;;;3.28;1.80;;;;;;;;;;4899049;29;20035;-78
2021/09/25 11:51:26;;;;;;;3.85;1.65;;;;;;;;;;4898970;29;20068;-82
2021/09/25 11:53:53;;;;;;;4.00;1.80;;;;;;;;;;4897491;29;20029;-79
2021/09/25 11:56:34;;;;;;;6.50;1.90;;;;;;;;;;4898342;29;20036;-77
2021/09/25 11:59:00;;;;;;;3.30;1.70;;;;;;;;;;4897615;29;20038;-82
2021/09/25 12:01:27;;;;;;;3.65;1.90;;;;;;;;;;4897345;29;20025;-76
2021/09/25 12:03:53;;;;;;;2.67;1.67;;;;;;;;;;4897443;29;20482;-77
2021/09/25 12:06:19;;;;;;;3.35;1.83;;;;;;;;;;4897448;29;20107;-79
2021/09/25 12:08:50;;;;;;;4.03;1.70;;;;;;;;;;4899088;29;20050;-77
2021/09/25 12:11:16;;;;;;;6.18;2.15;;;;;;;;;;4899227;29;20023;-78
2021/09/25 12:13:46;;;;;;;4.97;2.03;;;;;;;;;;4897176;29;20100;-78
2021/09/25 12:16:17;;;;;;;6.35;2.08;;;;;;;;;;4905074;29;20052;-80
2021/09/25 12:18:47;;;;;;;4.35;2.05;;;;;;;;;;4917450;29;20469;-77
2021/09/25 12:21:15;;;;;;;4.00;2.10;;;;;;;;;;4917451;29;20032;-80
2021/09/25 12:23:43;;;;;;;4.82;2.20;;;;;;;;;;4917507;29;20114;-77
2021/09/25 12:26:10;;;;;;;3.30;2.03;;;;;;;;;;4917487;29;20028;-79
2021/09/25 12:28:47;;;;;;;4.13;2.00;;;;;;;;;;4900274;29;20545;-79
2021/09/25 12:31:21;;;;;;;8.50;3.55;;;;;;;;;;4900317;29;20036;-79
2021/09/25 12:34:10;;;;;;;11.73;5.35;;;;;;;;;;4900248;29;20020;-76
2021/09/25 12:36:38;;;;;;;42.15;22.77;;;;;;;;;;4909760;29;20119;-77
2021/09/25 12:39:14;;;;;;;8.85;4.30;;;;;;;;;;4900223;29;20024;-78
2021/09/25 12:42:01;;;;;;;4.05;2.28;;;;;;;;;;4917710;29;20116;-76
2021/09/25 12:44:28;;;;;;;5.28;2.50;;;;;;;;;;4899827;29;20036;-78
2021/09/25 12:46:57;;;;;;;6.10;2.13;;;;;;;;;;4899989;29;20032;-78
2021/09/25 12:49:25;;;;;;;4.05;2.47;;;;;;;;;;4917142;29;20072;-77
2021/09/25 12:51:54;;;;;;;6.97;2.20;;;;;;;;;;4900107;29;20477;-76
2021/09/25 12:54:23;;;;;;;3.40;2.10;;;;;;;;;;4917208;29;20040;-80
2021/09/25 12:56:49;;;;;;;3.20;1.90;;;;;;;;;;4900870;29;20032;-78
2021/09/25 12:59:17;;;;;;;3.50;2.10;;;;;;;;;;4899990;29;20032;-79
2021/09/25 13:01:45;;;;;;;3.47;1.90;;;;;;;;;;4900117;29;20035;-80
2021/09/25 13:04:22;;;;;;;3.85;2.10;;;;;;;;;;4917132;29;20028;-80
2021/09/25 13:06:49;;;;;;;3.88;2.20;;;;;;;;;;4900757;29;20123;-80
2021/09/25 13:09:16;;;;;;;4.68;2.10;;;;;;;;;;4903338;29;20036;-77
2021/09/25 13:12:02;;;;;;;4.43;2.40;;;;;;;;;;4919237;29;20445;-80
2021/09/25 13:14:29;;;;;;;4.50;2.40;;;;;;;;;;4920472;29;20054;-78
2021/09/25 13:16:56;;;;;;;4.93;2.30;;;;;;;;;;4915443;29;20055;-78
2021/09/25 13:19:22;;;;;;;6.28;2.00;;;;;;;;;;4900542;29;20549;-80
2021/09/25 13:21:48;;;;;;;6.50;2.33;;;;;;;;;;4901671;29;20485;-77
2021/09/25 13:24:16;;;;;;;3.55;2.05;;;;;;;;;;4900067;29;20084;-80
2021/09/25 13:26:42;;;;;;;4.28;2.20;;;;;;;;;;4899748;29;20435;-77
2021/09/25 13:29:08;;;;;;;3.03;2.13;;;;;;;;;;4900114;29;20124;-80
2021/09/25 13:31:34;;;;;;;3.10;1.98;;;;;;;;;;4901171;29;20035;-83
2021/09/25 13:34:00;;;;;;;4.47;2.47;;;;;;;;;;4900935;29;20111;-83
2021/09/25 13:36:27;;;;;;;4.70;1.92;;;;;;;;;;4900078;29;20031;-80
2021/09/25 13:38:53;;;;;;;3.67;2.00;;;;;;;;;;4900578;29;20029;-80
2021/09/25 13:41:20;;;;;;;3.95;2.05;;;;;;;;;;4901385;29;20048;-77
2021/09/25 13:43:47;;;;;;;3.17;2.03;;;;;;;;;;4899912;29;20025;-76
2021/09/25 13:46:13;;;;;;;2.95;1.92;;;;;;;;;;4899610;29;20086;-77
2021/09/25 13:48:39;;;;;;;4.20;1.95;;;;;;;;;;4899418;29;20576;-78
2021/09/25 13:51:05;;;;;;;4.20;1.92;;;;;;;;;;4900868;29;20041;-77
2021/09/25 13:53:31;;;;;;;3.85;2.00;;;;;;;;;;4900504;29;20035;-79
2021/09/25 13:55:58;;;;;;;2.92;2.00;;;;;;;;;;4899986;29;20397;-79
2021/09/25 13:58:24;;;;;;;6.07;1.88;;;;;;;;;;4900420;29;20027;-78
2021/09/25 14:00:50;;;;;;;3.55;1.85;;;;;;;;;;4899268;29;20032;-78
2021/09/25 14:03:16;;;;;;;4.20;1.90;;;;;;;;;;4899470;29;20435;-79
2021/09/25 14:05:43;;;;;;;3.33;2.05;;;;;;;;;;4900588;29;20042;-80
2021/09/25 14:08:10;;;;;;;4.40;1.92;;;;;;;;;;4900660;29;20031;-78
2021/09/25 14:10:39;;;;;;;3.55;1.80;;;;;;;;;;4899218;29;20040;-79
2021/09/25 14:13:07;;;;;;;5.13;2.58;;;;;;;;;;4899477;29;20040;-79
2021/09/25 14:15:33;;;;;;;5.50;2.85;;;;;;;;;;4901739;29;20040;-78
2021/09/25 14:17:59;;;;;;;3.55;2.05;;;;;;;;;;4901794;29;20032;-83
2021/09/25 14:20:25;;;;;;;4.15;2.28;;;;;;;;;;4902258;29;20043;-76
2021/09/25 14:22:51;;;;;;;5.20;2.00;;;;;;;;;;4918964;29;20039;-78
2021/09/25 14:25:18;;;;;;;3.90;2.30;;;;;;;;;;4919068;29;20025;-78
2021/09/25 14:27:44;;;;;;;5.13;2.50;;;;;;;;;;4919068;29;20486;-78
2021/09/25 14:30:10;;;;;;;3.78;2.00;;;;;;;;;;4919067;29;20103;-77
2021/09/25 14:32:37;;;;;;;4.00;2.17;;;;;;;;;;4902125;29;20482;-78
2021/09/25 14:35:04;;;;;;;5.00;2.53;;;;;;;;;;4901875;29;20071;-78
2021/09/25 14:37:30;;;;;;;3.25;2.08;;;;;;;;;;4919176;29;20107;-79
2021/09/25 14:39:56;;;;;;;9.13;2.13;;;;;;;;;;4919268;29;20381;-86
2021/09/25 14:42:22;;;;;;;4.40;2.03;;;;;;;;;;4900986;29;20032;-77
2021/09/25 14:44:49;;;;;;;4.78;2.38;;;;;;;;;;4901718;29;20032;-76